Time;durP1;ratioP1;P1;durP2;ratioP2;P2;SDS_P1;SDS_P2;PMS_P1;PMS_P2;Temp;Humidity;BMP_temperature;BMP_pressure;BME280_temperature;BME280_humidity;BME280_pressure;Samples;Min_cycle;Max_cycle;Signal;HPM_P1;HPM_P2
2023/09/21 00:00:08;;;;;;;7.20;4.10;;;;;;;13.99;85.80;100303.63;108252;270;899355;-74
2023/09/21 00:03:06;;;;;;;6.50;4.30;;;;;;;13.96;85.72;100304.11;108972;278;38710;-75
2023/09/21 00:05:46;;;;;;;5.90;4.10;;;;;;;13.92;85.72;100300.30;108958;278;38461;-75
2023/09/21 00:08:22;;;;;;;5.00;3.40;;;;;;;13.86;85.87;100299.52;109002;278;40908;-74
2023/09/21 00:11:00;;;;;;;6.90;3.80;;;;;;;13.86;85.99;100301.29;109011;278;38354;-74
2023/09/21 00:13:49;;;;;;;6.40;4.10;;;;;;;13.86;86.06;100300.60;109024;278;38555;-74
2023/09/21 00:16:27;;;;;;;5.90;4.20;;;;;;;13.86;86.10;100297.23;108982;278;38250;-76
2023/09/21 00:19:07;;;;;;;8.50;4.80;;;;;;;13.86;86.26;100295.85;108959;278;38381;-73
2023/09/21 00:21:47;;;;;;;5.70;4.00;;;;;;;13.84;86.35;100292.64;109015;278;39208;-74
2023/09/21 00:24:30;;;;;;;5.20;4.10;;;;;;;13.85;86.63;100295.38;108816;278;174776;-73
2023/09/21 00:27:07;;;;;;;8.20;4.10;;;;;;;13.88;86.85;100293.66;108932;278;38807;-73
2023/09/21 00:29:45;;;;;;;7.40;4.10;;;;;;;13.89;86.60;100291.86;108927;278;38387;-73
2023/09/21 00:32:20;;;;;;;6.90;4.70;;;;;;;13.87;86.51;100293.48;108855;278;38859;-73
2023/09/21 00:34:56;;;;;;;7.20;4.10;;;;;;;13.86;86.49;100294.97;108867;278;39681;-73
2023/09/21 00:37:34;;;;;;;6.00;4.20;;;;;;;13.84;86.64;100292.30;108939;278;38150;-75
2023/09/21 00:40:23;;;;;;;5.40;4.10;;;;;;;13.84;86.61;100292.66;108823;278;176011;-73
2023/09/21 00:42:57;;;;;;;6.30;4.00;;;;;;;13.83;86.61;100292.48;108936;278;38261;-74
2023/09/21 00:45:32;;;;;;;5.90;3.90;;;;;;;13.82;86.38;100290.64;108898;278;39050;-74
2023/09/21 00:48:11;;;;;;;5.00;4.20;;;;;;;13.79;86.55;100284.32;108969;278;38761;-73
2023/09/21 00:50:51;;;;;;;5.90;4.40;;;;;;;13.81;86.96;100285.61;108946;278;38127;-74
2023/09/21 00:53:28;;;;;;;7.00;4.80;;;;;;;13.81;86.84;100283.66;108971;278;39422;-74
2023/09/21 00:56:08;;;;;;;5.50;4.30;;;;;;;13.81;86.94;100279.13;108993;278;38462;-73
2023/09/21 00:58:47;;;;;;;8.40;4.40;;;;;;;13.82;87.05;100279.21;108965;278;38149;-73
2023/09/21 01:01:27;;;;;;;;;;;;;;;13.84;87.14;100281.74;108848;278;175152;-73
2023/09/21 01:04:26;;;;;;;7.00;4.90;;;;;;;13.80;87.12;100282.66;109040;278;38274;-75
2023/09/21 01:07:17;;;;;;;5.20;4.40;;;;;;;13.75;87.07;100285.95;108955;278;39339;-74
2023/09/21 01:09:51;;;;;;;8.60;4.20;;;;;;;13.76;87.43;100286.42;108889;278;39785;-74
2023/09/21 01:12:27;;;;;;;5.80;4.30;;;;;;;13.77;87.36;100286.31;108924;278;38589;-72
2023/09/21 01:15:13;;;;;;;6.00;4.80;;;;;;;13.78;87.34;100288.55;108898;278;38777;-73
2023/09/21 01:17:59;;;;;;;8.40;5.20;;;;;;;13.81;87.54;100287.92;108900;278;38310;-74
2023/09/21 01:20:47;;;;;;;5.90;4.80;;;;;;;13.82;87.75;100288.40;108966;278;38229;-74
2023/09/21 01:23:37;;;;;;;7.00;4.80;;;;;;;13.86;88.05;100283.77;108941;278;39457;-74
2023/09/21 01:26:13;;;;;;;7.90;4.90;;;;;;;13.91;88.20;100291.35;108917;278;38310;-74
2023/09/21 01:28:49;;;;;;;6.40;4.80;;;;;;;13.97;88.18;100291.45;108809;278;177468;-74
2023/09/21 01:31:25;;;;;;;7.70;5.20;;;;;;;14.00;87.98;100290.94;108922;278;39495;-75
2023/09/21 01:34:03;;;;;;;7.30;4.90;;;;;;;14.01;88.01;100290.70;108889;278;38774;-74
2023/09/21 01:36:40;;;;;;;5.90;4.50;;;;;;;14.03;87.79;100290.05;108991;278;39003;-76
2023/09/21 01:39:18;;;;;;;8.50;4.80;;;;;;;14.03;87.72;100293.05;108964;278;38754;-75
2023/09/21 01:41:53;;;;;;;8.40;5.40;;;;;;;14.03;87.83;100295.46;108977;278;38268;-74
2023/09/21 01:44:30;;;;;;;9.90;5.50;;;;;;;14.04;87.97;100294.55;108945;278;38758;-74
2023/09/21 01:47:12;;;;;;;9.80;5.60;;;;;;;14.06;88.02;100293.02;108945;278;38928;-73
2023/09/21 01:49:47;;;;;;;7.70;6.20;;;;;;;14.09;87.92;100289.04;108964;278;38944;-73
2023/09/21 01:52:25;;;;;;;7.00;5.20;;;;;;;14.11;87.93;100287.50;108977;278;38272;-75
2023/09/21 01:55:06;;;;;;;7.40;5.40;;;;;;;14.14;87.96;100287.52;108901;278;38725;-74
2023/09/21 01:57:44;;;;;;;6.50;5.50;;;;;;;14.16;87.94;100287.55;108921;278;38258;-73
2023/09/21 02:00:25;;;;;;;;;;;;;;;14.15;87.63;100281.31;108936;278;38666;-73
2023/09/21 02:02:59;;;;;;;8.60;4.80;;;;;;;14.13;87.88;100283.89;108928;278;39329;-73
2023/09/21 02:05:33;;;;;;;6.90;4.70;;;;;;;14.16;87.79;100284.79;108902;278;38313;-73
2023/09/21 02:08:18;;;;;;;7.50;5.20;;;;;;;14.16;87.75;100283.72;108945;278;39367;-73
2023/09/21 02:11:01;;;;;;;7.50;5.50;;;;;;;14.15;87.47;100282.73;109021;278;39668;-73
2023/09/21 02:13:50;;;;;;;6.10;4.80;;;;;;;14.13;87.50;100280.21;108843;278;40547;-73
2023/09/21 02:16:24;;;;;;;9.90;5.30;;;;;;;14.14;87.84;100280.52;108933;278;38220;-73
2023/09/21 02:19:00;;;;;;;8.10;5.10;;;;;;;14.16;87.69;100281.45;108848;278;39563;-73
2023/09/21 02:21:38;;;;;;;6.00;5.00;;;;;;;14.15;87.53;100282.20;108952;278;38557;-74
2023/09/21 02:24:13;;;;;;;6.50;5.30;;;;;;;14.15;87.46;100281.90;108922;278;39914;-74
2023/09/21 02:26:48;;;;;;;8.00;5.80;;;;;;;14.14;87.59;100284.38;108809;278;174929;-74
2023/09/21 02:29:22;;;;;;;8.60;5.30;;;;;;;14.13;87.35;100283.18;108801;278;174803;-75
2023/09/21 02:32:03;;;;;;;9.60;5.00;;;;;;;14.13;87.47;100284.05;108930;278;38174;-74
2023/09/21 02:34:41;;;;;;;6.30;5.20;;;;;;;14.15;87.64;100280.42;108914;278;38517;-74
2023/09/21 02:37:21;;;;;;;6.30;5.60;;;;;;;14.16;87.42;100278.96;108923;278;38264;-74
2023/09/21 02:40:06;;;;;;;6.50;4.70;;;;;;;14.14;87.27;100278.95;108209;278;899361;-75
2023/09/21 02:42:40;;;;;;;8.20;5.20;;;;;;;14.13;87.43;100275.47;108881;278;39424;-73
2023/09/21 02:45:20;;;;;;;7.30;5.10;;;;;;;14.15;87.45;100273.94;108868;278;38258;-75
2023/09/21 02:48:00;;;;;;;7.20;4.80;;;;;;;14.15;87.47;100270.62;108903;278;38732;-74
2023/09/21 02:50:34;;;;;;;11.70;5.90;;;;;;;14.16;87.52;100269.70;108893;278;39316;-74
2023/09/21 02:53:10;;;;;;;6.80;5.10;;;;;;;14.16;87.52;100269.17;108948;278;40085;-75
2023/09/21 02:55:48;;;;;;;6.10;5.10;;;;;;;14.16;87.45;100268.96;108901;278;38300;-73
2023/09/21 02:58:23;;;;;;;7.30;5.30;;;;;;;14.16;87.57;100265.64;108853;278;38381;-74
2023/09/21 03:01:00;;;;;;;6.90;5.60;;;;;;;14.16;87.65;100257.91;108888;278;38267;-74
2023/09/21 03:03:41;;;;;;;6.90;5.40;;;;;;;14.17;87.57;100260.87;108963;278;38721;-74
2023/09/21 03:06:18;;;;;;;7.50;5.90;;;;;;;14.18;87.73;100257.98;109008;278;38536;-74
2023/09/21 03:08:55;;;;;;;7.60;5.40;;;;;;;14.20;87.71;100254.90;108936;278;38490;-74
2023/09/21 03:11:32;;;;;;;6.60;5.20;;;;;;;14.19;87.61;100251.63;108911;278;38524;-74
2023/09/21 03:14:08;;;;;;;7.90;5.60;;;;;;;14.21;87.77;100252.77;108953;278;39402;-73
2023/09/21 03:16:50;;;;;;;7.80;5.90;;;;;;;14.23;87.75;100250.18;108844;278;190826;-75
2023/09/21 03:19:35;;;;;;;9.50;5.90;;;;;;;14.23;87.76;100244.39;109020;278;38176;-74
2023/09/21 03:22:09;;;;;;;8.40;5.70;;;;;;;14.26;87.76;100244.09;109004;278;38221;-74
2023/09/21 03:24:54;;;;;;;7.80;5.10;;;;;;;14.28;87.68;100240.46;109054;278;38414;-73
2023/09/21 03:27:30;;;;;;;8.00;5.20;;;;;;;14.29;87.74;100240.92;108977;278;38634;-75
2023/09/21 03:30:05;;;;;;;7.40;5.60;;;;;;;14.30;87.72;100237.35;108936;278;38492;-77
2023/09/21 03:32:40;;;;;;;7.90;5.70;;;;;;;14.32;87.75;100241.11;108928;278;38268;-75
2023/09/21 03:35:14;;;;;;;6.90;5.20;;;;;;;14.33;87.74;100237.69;108795;278;175655;-75
2023/09/21 03:37:50;;;;;;;6.40;5.00;;;;;;;14.34;87.55;100243.95;108928;278;38191;-75
2023/09/21 03:40:25;;;;;;;7.70;5.40;;;;;;;14.35;87.43;100240.03;108893;278;38174;-75
2023/09/21 03:43:00;;;;;;;7.90;5.60;;;;;;;14.35;87.50;100238.11;108937;278;38943;-75
2023/09/21 03:45:34;;;;;;;9.30;5.60;;;;;;;14.35;87.48;100238.83;108925;278;38175;-75
2023/09/21 03:48:09;;;;;;;6.40;5.30;;;;;;;14.36;87.47;100240.50;108922;278;39063;-74
2023/09/21 03:50:48;;;;;;;7.00;4.80;;;;;;;14.36;87.45;100243.69;108896;278;39494;-73
2023/09/21 03:53:25;;;;;;;7.30;5.80;;;;;;;14.37;87.35;100238.73;108233;278;897878;-74
2023/09/21 03:56:04;;;;;;;6.40;5.50;;;;;;;14.38;87.28;100235.34;109000;278;39753;-73
2023/09/21 03:58:41;;;;;;;8.60;5.60;;;;;;;14.36;87.16;100237.53;108986;278;38473;-73
2023/09/21 04:01:18;;;;;;;7.40;5.30;;;;;;;14.35;87.20;100240.23;108872;278;175162;-73
2023/09/21 04:04:04;;;;;;;10.00;5.20;;;;;;;14.34;87.20;100236.27;108966;278;41309;-73
2023/09/21 04:06:43;;;;;;;10.10;6.00;;;;;;;14.34;87.08;100230.63;108988;278;38516;-74
2023/09/21 04:09:21;;;;;;;10.20;6.30;;;;;;;14.34;87.13;100229.92;108911;278;38426;-73
2023/09/21 04:12:03;;;;;;;7.50;5.50;;;;;;;14.34;87.08;100228.71;108937;278;38251;-73
2023/09/21 04:14:43;;;;;;;7.10;6.20;;;;;;;14.33;87.29;100228.93;108859;278;41060;-75
2023/09/21 04:17:26;;;;;;;7.30;5.40;;;;;;;14.34;87.20;100224.33;108878;278;38732;-73
2023/09/21 04:20:04;;;;;;;7.40;5.90;;;;;;;14.33;87.20;100224.18;108939;278;38274;-73
2023/09/21 04:22:39;;;;;;;7.80;6.40;;;;;;;14.33;87.24;100222.08;108940;278;38201;-73
2023/09/21 04:25:16;;;;;;;8.60;6.20;;;;;;;14.34;87.33;100222.59;108890;278;38195;-74
2023/09/21 04:28:03;;;;;;;8.10;6.10;;;;;;;14.32;87.18;100223.05;108924;278;38259;-75
2023/09/21 04:31:02;;;;;;;8.70;6.20;;;;;;;14.30;87.13;100225.77;108882;278;38222;-76
2023/09/21 04:33:54;;;;;;;7.80;6.30;;;;;;;14.31;87.38;100221.30;108933;278;38780;-76
2023/09/21 04:36:39;;;;;;;10.00;7.00;;;;;;;14.32;87.44;100218.47;108964;278;38206;-74
2023/09/21 04:39:30;;;;;;;;;;;;;;;14.30;87.23;100218.73;109005;278;38210;-76
2023/09/21 04:42:18;;;;;;;8.60;6.20;;;;;;;14.25;87.54;100217.10;108933;278;174847;-74
2023/09/21 04:44:55;;;;;;;8.00;5.60;;;;;;;14.29;87.70;100217.92;108994;278;38180;-74
2023/09/21 04:47:34;;;;;;;9.30;6.30;;;;;;;14.33;87.66;100219.96;109012;278;38856;-74
2023/09/21 04:50:16;;;;;;;8.80;6.20;;;;;;;14.37;87.80;100213.60;108987;278;38343;-73
2023/09/21 04:52:54;;;;;;;10.10;6.30;;;;;;;14.40;87.75;100209.61;108984;278;38354;-73
2023/09/21 04:55:31;;;;;;;7.70;5.50;;;;;;;14.41;87.73;100212.48;108923;278;38148;-75
2023/09/21 04:58:06;;;;;;;6.40;5.70;;;;;;;14.44;87.72;100217.42;108898;278;38295;-75
2023/09/21 05:00:43;;;;;;;7.50;5.70;;;;;;;14.49;87.55;100214.55;108891;278;38186;-74
2023/09/21 05:03:20;;;;;;;10.20;6.00;;;;;;;14.53;87.48;100214.17;108896;278;38436;-74
2023/09/21 05:05:55;;;;;;;7.90;5.70;;;;;;;14.61;87.77;100214.23;108968;278;38289;-75
2023/09/21 05:08:29;;;;;;;8.40;6.00;;;;;;;14.78;87.91;100210.30;108902;278;39952;-75
2023/09/21 05:11:03;;;;;;;8.20;5.60;;;;;;;14.89;87.95;100205.59;108925;278;39987;-75
2023/09/21 05:13:39;;;;;;;9.30;6.10;;;;;;;15.02;87.83;100205.52;108859;278;38420;-74
2023/09/21 05:16:13;;;;;;;7.60;5.90;;;;;;;15.09;87.33;100203.52;108878;278;38194;-75
2023/09/21 05:18:50;;;;;;;7.50;5.90;;;;;;;15.14;87.01;100201.79;108969;278;38761;-75
2023/09/21 05:21:24;;;;;;;8.90;5.60;;;;;;;15.18;86.83;100202.46;108941;278;37956;-75
2023/09/21 05:23:58;;;;;;;6.30;4.80;;;;;;;15.21;86.63;100197.01;108994;278;39744;-74
2023/09/21 05:26:36;;;;;;;6.40;5.00;;;;;;;15.27;86.57;100199.66;108947;278;39087;-75
2023/09/21 05:29:14;;;;;;;7.40;5.50;;;;;;;15.33;86.38;100204.89;109030;278;39575;-75
2023/09/21 05:31:50;;;;;;;8.10;5.20;;;;;;;15.40;86.43;100206.02;109075;278;39565;-76
2023/09/21 05:34:25;;;;;;;7.40;5.30;;;;;;;15.46;86.28;100203.89;108978;278;38373;-75
2023/09/21 05:37:00;;;;;;;6.50;5.10;;;;;;;15.51;86.16;100204.11;108916;278;174583;-75
2023/09/21 05:39:38;;;;;;;8.30;5.40;;;;;;;15.57;86.17;100201.50;108957;278;38258;-74
2023/09/21 05:42:18;;;;;;;7.20;4.90;;;;;;;15.67;86.30;100198.25;108955;278;38230;-76
2023/09/21 05:44:56;;;;;;;5.90;5.10;;;;;;;15.99;87.51;100194.14;108947;278;38247;-74
2023/09/21 05:47:36;;;;;;;6.50;4.90;;;;;;;17.11;91.61;100192.27;108980;278;38457;-75
2023/09/21 05:50:23;;;;;;;5.50;4.90;;;;;;;18.43;91.31;100189.98;108919;278;38622;-74
2023/09/21 05:53:03;;;;;;;6.00;4.60;;;;;;;19.54;86.14;100183.17;108986;278;38403;-74
2023/09/21 05:55:39;;;;;;;6.30;4.50;;;;;;;20.34;81.33;100186.95;108934;278;38168;-74
2023/09/21 05:58:17;;;;;;;5.60;4.50;;;;;;;20.54;77.10;100185.88;108950;278;38457;-74
2023/09/21 06:00:54;;;;;;;6.70;4.60;;;;;;;20.50;74.39;100191.14;108973;278;39341;-74
2023/09/21 06:03:31;;;;;;;7.40;4.50;;;;;;;20.34;72.81;100191.70;108963;278;38527;-74
2023/09/21 06:06:10;;;;;;;5.80;5.00;;;;;;;20.14;71.90;100188.76;109034;278;38776;-72
2023/09/21 06:08:48;;;;;;;6.60;5.10;;;;;;;20.02;72.13;100196.27;108868;278;174887;-78
2023/09/21 06:11:26;;;;;;;7.10;5.10;;;;;;;19.86;71.89;100197.90;108968;278;38242;-75
2023/09/21 06:14:02;;;;;;;8.70;5.00;;;;;;;19.66;71.93;100202.09;108933;278;38337;-73
2023/09/21 06:16:37;;;;;;;7.30;4.80;;;;;;;19.50;72.04;100201.16;108975;278;38522;-75
2023/09/21 06:19:13;;;;;;;8.20;5.00;;;;;;;19.37;72.31;100199.56;109023;278;39336;-75
2023/09/21 06:21:56;;;;;;;6.10;4.90;;;;;;;19.25;72.86;100205.05;108974;278;38933;-74
2023/09/21 06:24:32;;;;;;;8.50;5.20;;;;;;;19.17;73.27;100204.48;108922;278;39463;-74
2023/09/21 06:27:08;;;;;;;6.70;4.50;;;;;;;19.12;73.47;100205.59;108953;278;38227;-77
2023/09/21 06:29:45;;;;;;;5.90;4.70;;;;;;;19.17;73.76;100201.10;108928;278;38461;-74
2023/09/21 06:32:23;;;;;;;5.00;4.10;;;;;;;19.23;73.95;100202.05;108953;278;38333;-75
2023/09/21 06:34:56;;;;;;;;;;;;;;;19.35;74.32;100197.42;108906;278;38286;-75
2023/09/21 06:37:34;;;;;;;6.70;4.60;;;;;;;19.37;74.09;100197.33;108895;278;38217;-75
2023/09/21 06:40:13;;;;;;;5.70;4.40;;;;;;;19.36;74.00;100197.90;108904;278;38253;-73
2023/09/21 06:42:51;;;;;;;6.30;4.10;;;;;;;19.35;73.74;100197.21;108913;278;38348;-74
2023/09/21 06:45:31;;;;;;;8.20;4.60;;;;;;;19.38;73.87;100199.83;108877;278;41511;-76
2023/09/21 06:48:17;;;;;;;;;;;;;;;19.44;74.17;100202.25;108974;278;39905;-74
2023/09/21 06:50:56;;;;;;;6.30;4.30;;;;;;;19.50;74.14;100206.14;108922;278;38304;-76
2023/09/21 06:53:30;;;;;;;5.40;4.70;;;;;;;19.56;74.20;100207.58;108875;278;38461;-74
2023/09/21 06:56:06;;;;;;;6.30;4.80;;;;;;;19.61;73.64;100204.11;108879;278;189375;-75
2023/09/21 06:58:46;;;;;;;7.00;4.80;;;;;;;19.66;73.45;100204.27;108325;278;682616;-73
2023/09/21 07:01:23;;;;;;;6.80;4.50;;;;;;;19.72;73.27;100204.35;109023;278;38749;-71
2023/09/21 07:04:02;;;;;;;6.20;4.50;;;;;;;19.77;73.14;100202.61;109040;277;38751;-71
2023/09/21 07:06:35;;;;;;;;;;;;;;;19.86;73.34;100202.31;109014;278;38456;-72
2023/09/21 07:09:10;;;;;;;6.30;4.10;;;;;;;19.92;73.28;100200.04;109004;278;38300;-72
2023/09/21 07:11:49;;;;;;;6.10;4.40;;;;;;;20.03;72.82;100198.48;109029;278;38283;-72
2023/09/21 07:14:26;;;;;;;5.30;4.20;;;;;;;20.08;72.21;100200.33;108989;278;38189;-71
2023/09/21 07:17:00;;;;;;;7.10;5.00;;;;;;;20.15;72.33;100201.23;109008;278;38371;-69
2023/09/21 07:19:37;;;;;;;8.30;4.80;;;;;;;20.20;71.87;100200.98;108924;278;38190;-70
2023/09/21 07:22:17;;;;;;;7.10;4.20;;;;;;;20.25;71.31;100199.32;108897;278;41327;-68
2023/09/21 07:24:57;;;;;;;6.30;4.80;;;;;;;20.32;71.34;100200.53;108897;278;38713;-68
2023/09/21 07:27:35;;;;;;;6.50;4.50;;;;;;;20.41;71.34;100196.46;108864;278;39529;-71
2023/09/21 07:30:13;;;;;;;6.70;4.90;;;;;;;20.51;70.50;100198.16;109044;278;38146;-72
2023/09/21 07:32:52;;;;;;;6.70;5.10;;;;;;;20.59;70.43;100195.89;109007;278;38180;-70
2023/09/21 07:35:31;;;;;;;6.70;4.80;;;;;;;20.66;70.51;100193.57;108894;278;39397;-70
2023/09/21 07:38:05;;;;;;;6.40;4.70;;;;;;;20.75;70.27;100192.45;108903;278;40162;-68
2023/09/21 07:40:45;;;;;;;8.40;5.20;;;;;;;20.88;70.42;100196.88;108924;278;38383;-68
2023/09/21 07:43:22;;;;;;;6.70;5.30;;;;;;;21.07;70.77;100192.17;108938;278;39004;-68
2023/09/21 07:45:59;;;;;;;7.10;4.80;;;;;;;21.32;69.76;100194.52;108983;278;39524;-71
2023/09/21 07:48:35;;;;;;;9.30;5.30;;;;;;;21.63;69.69;100189.56;108972;278;39356;-70
2023/09/21 07:51:13;;;;;;;5.10;4.60;;;;;;;22.12;69.26;100188.13;108982;278;39394;-68
2023/09/21 07:53:50;;;;;;;7.30;4.70;;;;;;;22.71;68.84;100180.95;108920;278;39623;-68
2023/09/21 07:56:26;;;;;;;6.10;4.50;;;;;;;23.37;66.21;100177.64;108929;278;39605;-76
2023/09/21 07:59:04;;;;;;;6.40;4.70;;;;;;;24.03;65.34;100175.95;108949;278;39672;-76
2023/09/21 08:01:38;;;;;;;5.10;4.40;;;;;;;24.82;63.94;100175.59;109017;278;38295;-77
2023/09/21 08:04:21;;;;;;;5.10;4.40;;;;;;;25.69;61.80;100175.09;108903;278;39188;-77
2023/09/21 08:06:56;;;;;;;7.20;4.10;;;;;;;26.59;59.30;100168.56;108982;278;38384;-77
2023/09/21 08:09:31;;;;;;;7.40;4.60;;;;;;;27.45;56.61;100163.04;108291;278;886267;-78
2023/09/21 08:12:08;;;;;;;5.30;3.80;;;;;;;28.27;54.52;100159.20;108932;278;38371;-75
2023/09/21 08:14:43;;;;;;;6.70;4.10;;;;;;;29.11;52.38;100156.20;108907;278;39546;-76
2023/09/21 08:17:17;;;;;;;6.40;3.60;;;;;;;29.80;50.12;100160.98;108978;278;38457;-77
2023/09/21 08:19:52;;;;;;;4.50;3.50;;;;;;;30.28;47.55;100160.61;108948;278;39992;-77
2023/09/21 08:22:31;;;;;;;4.50;3.30;;;;;;;30.59;45.84;100155.27;108937;278;38181;-74
2023/09/21 08:25:08;;;;;;;4.00;3.50;;;;;;;30.75;45.20;100152.38;108955;278;38275;-74
2023/09/21 08:27:45;;;;;;;5.20;3.40;;;;;;;30.71;43.88;100151.29;109004;278;38638;-77
2023/09/21 08:30:23;;;;;;;4.80;3.30;;;;;;;30.61;44.17;100157.33;108940;278;38169;-77
2023/09/21 08:32:57;;;;;;;3.50;3.20;;;;;;;30.50;43.24;100157.28;108890;278;38914;-75
2023/09/21 08:35:32;;;;;;;5.30;2.80;;;;;;;30.38;42.95;100152.50;108927;278;39800;-74
2023/09/21 08:38:08;;;;;;;3.90;3.00;;;;;;;30.25;42.25;100152.70;108973;278;39786;-77
2023/09/21 08:40:52;;;;;;;5.20;3.40;;;;;;;30.05;42.55;100148.63;108944;278;38308;-77
2023/09/21 08:43:29;;;;;;;3.40;2.90;;;;;;;30.07;42.23;100147.69;108980;278;38193;-76
2023/09/21 08:46:11;;;;;;;3.90;2.90;;;;;;;30.18;42.13;100150.75;108986;278;38464;-75
2023/09/21 08:48:45;;;;;;;3.10;2.80;;;;;;;30.20;41.41;100149.17;108855;278;39036;-74
2023/09/21 08:51:20;;;;;;;4.00;2.70;;;;;;;30.20;41.29;100144.52;108919;278;39594;-74
2023/09/21 08:53:55;;;;;;;3.40;2.70;;;;;;;30.13;41.19;100148.23;108794;278;174256;-73
2023/09/21 08:56:32;;;;;;;2.80;2.50;;;;;;;29.94;40.94;100143.60;108958;278;39096;-76
2023/09/21 08:59:11;;;;;;;3.20;2.90;;;;;;;29.68;41.67;100139.96;108948;278;39787;-76
2023/09/21 09:01:46;;;;;;;3.30;2.60;;;;;;;29.40;42.16;100139.35;108952;278;38963;-77
2023/09/21 09:04:21;;;;;;;4.40;2.90;;;;;;;29.12;42.34;100136.08;108953;278;39351;-77
2023/09/21 09:06:57;;;;;;;4.00;2.90;;;;;;;28.86;43.57;100133.63;108962;278;39458;-77
2023/09/21 09:09:32;;;;;;;5.30;3.40;;;;;;;28.65;43.79;100132.90;108947;278;39827;-79
2023/09/21 09:12:23;;;;;;;4.20;3.00;;;;;;;28.47;44.28;100132.94;108987;278;38474;-74
2023/09/21 09:15:02;;;;;;;5.30;3.20;;;;;;;28.39;44.80;100131.13;108914;278;38345;-74
2023/09/21 09:17:39;;;;;;;7.80;3.90;;;;;;;28.36;44.75;100136.36;108959;278;38239;-76
2023/09/21 09:20:17;;;;;;;5.10;3.20;;;;;;;28.49;44.70;100134.40;108894;278;38325;-76
2023/09/21 09:22:55;;;;;;;4.30;3.50;;;;;;;28.80;44.59;100132.73;108937;278;38312;-74
2023/09/21 09:25:33;;;;;;;5.80;3.40;;;;;;;29.21;43.98;100129.63;108865;278;39418;-75
2023/09/21 09:28:09;;;;;;;4.30;3.00;;;;;;;29.74;43.35;100132.37;108931;278;39758;-77
2023/09/21 09:30:52;;;;;;;3.90;2.60;;;;;;;30.32;41.87;100132.75;108898;278;39259;-77
2023/09/21 09:33:33;;;;;;;4.60;2.70;;;;;;;30.87;40.92;100122.55;108941;278;39421;-75
2023/09/21 09:36:13;;;;;;;2.90;2.70;;;;;;;31.32;38.52;100122.33;109016;278;38393;-74
2023/09/21 09:38:48;;;;;;;4.40;2.40;;;;;;;31.58;38.37;100119.19;109011;278;38621;-74
2023/09/21 09:41:25;;;;;;;3.90;2.50;;;;;;;31.74;37.85;100113.92;108985;278;38253;-76
2023/09/21 09:44:05;;;;;;;4.50;2.90;;;;;;;31.82;38.15;100116.64;108936;278;38635;-76
2023/09/21 09:46:47;;;;;;;4.60;2.60;;;;;;;31.75;37.98;100110.52;108991;278;38585;-76
2023/09/21 09:49:21;;;;;;;3.60;2.70;;;;;;;31.55;37.76;100109.23;108914;278;38587;-75
2023/09/21 09:52:06;;;;;;;3.90;2.70;;;;;;;31.22;38.07;100106.30;108956;278;38723;-76
2023/09/21 09:54:51;;;;;;;4.70;3.10;;;;;;;30.76;37.82;100105.55;108840;278;38479;-78
2023/09/21 09:57:25;;;;;;;3.00;2.60;;;;;;;30.32;38.92;100105.76;108971;278;38307;-76
2023/09/21 10:00:05;;;;;;;4.10;2.40;;;;;;;29.97;39.56;100104.58;109006;278;38174;-76
2023/09/21 10:02:41;;;;;;;2.90;2.60;;;;;;;29.59;39.37;100104.98;109001;278;38819;-76
2023/09/21 10:05:16;;;;;;;3.50;2.90;;;;;;;29.24;40.11;100099.88;108980;278;38168;-76
2023/09/21 10:07:51;;;;;;;4.00;2.50;;;;;;;28.92;40.43;100095.56;109014;278;38465;-74
2023/09/21 10:10:30;;;;;;;3.60;2.40;;;;;;;28.61;40.69;100092.48;108985;278;38696;-74
2023/09/21 10:13:06;;;;;;;4.40;2.60;;;;;;;28.33;41.56;100084.67;108969;278;38493;-75
2023/09/21 10:15:41;;;;;;;3.90;2.60;;;;;;;28.13;42.04;100079.14;108909;278;38260;-76
2023/09/21 10:18:35;;;;;;;5.60;2.50;;;;;;;27.96;42.36;100078.20;108915;278;38337;-77
2023/09/21 10:21:31;;;;;;;3.90;2.60;;;;;;;27.81;42.67;100075.48;108953;278;38778;-75
2023/09/21 10:24:07;;;;;;;4.00;2.50;;;;;;;27.65;42.99;100069.75;108930;278;39984;-76
2023/09/21 10:26:43;;;;;;;4.80;2.70;;;;;;;27.56;43.32;100068.09;108897;278;38241;-76
2023/09/21 10:29:22;;;;;;;2.80;2.20;;;;;;;27.40;43.29;100060.37;109027;278;40050;-76
2023/09/21 10:32:07;;;;;;;3.70;2.50;;;;;;;27.33;43.99;100063.42;109018;278;38449;-74
2023/09/21 10:34:52;;;;;;;3.60;2.20;;;;;;;27.29;43.89;100060.85;108954;278;38728;-74
2023/09/21 10:37:29;;;;;;;3.60;2.70;;;;;;;27.20;43.93;100056.95;108999;278;39552;-74
2023/09/21 10:40:09;;;;;;;3.40;2.60;;;;;;;27.11;43.79;100057.45;108958;278;41265;-75
2023/09/21 10:42:49;;;;;;;5.70;2.30;;;;;;;27.00;44.05;100056.19;108977;278;38295;-76
2023/09/21 10:45:31;;;;;;;3.10;2.10;;;;;;;26.90;44.29;100052.81;108924;278;38580;-76
2023/09/21 10:48:06;;;;;;;4.20;2.30;;;;;;;26.84;44.29;100051.02;108972;278;38994;-76
2023/09/21 10:50:40;;;;;;;4.50;2.30;;;;;;;26.76;44.63;100049.85;108929;278;38143;-73
2023/09/21 10:53:18;;;;;;;4.90;2.30;;;;;;;26.73;44.85;100044.86;108879;278;187715;-76
2023/09/21 10:55:56;;;;;;;8.50;2.40;;;;;;;26.73;45.24;100040.94;108945;278;38409;-75
2023/09/21 10:58:34;;;;;;;4.40;2.60;;;;;;;26.72;44.93;100033.29;108957;278;38789;-73
2023/09/21 11:01:10;;;;;;;2.80;2.30;;;;;;;26.66;45.31;100029.51;109064;278;40976;-74
2023/09/21 11:03:49;;;;;;;2.80;2.40;;;;;;;26.63;45.40;100025.05;109017;278;38177;-74
2023/09/21 11:06:22;;;;;;;;;;;;;;;26.61;45.12;100026.30;109062;278;38140;-76
2023/09/21 11:08:59;;;;;;;6.40;2.70;;;;;;;26.55;45.04;100021.95;108983;278;38182;-75
2023/09/21 11:11:34;;;;;;;2.60;2.30;;;;;;;26.52;45.33;100018.73;108945;278;38448;-75
2023/09/21 11:14:09;;;;;;;3.80;2.30;;;;;;;26.49;45.86;100017.75;108927;278;39220;-71
2023/09/21 11:16:43;;;;;;;3.90;2.10;;;;;;;26.49;45.91;100015.51;108921;278;38474;-73
2023/09/21 11:19:20;;;;;;;3.40;1.90;;;;;;;26.49;45.69;100017.63;108944;278;38144;-76
2023/09/21 11:21:54;;;;;;;3.30;1.90;;;;;;;26.49;45.83;100017.28;108974;278;38178;-76
2023/09/21 11:24:30;;;;;;;3.30;2.20;;;;;;;26.48;46.10;100011.48;108941;278;40148;-75
2023/09/21 11:27:11;;;;;;;4.30;2.40;;;;;;;26.46;45.73;100011.50;109023;278;38308;-76
2023/09/21 11:29:51;;;;;;;;;;;;;;;26.44;45.72;100006.05;109012;278;38294;-77
2023/09/21 11:32:31;;;;;;;3.30;2.30;;;;;;;26.40;46.25;100007.17;109067;278;39779;-75
2023/09/21 11:35:13;;;;;;;3.80;2.00;;;;;;;26.41;46.30;100003.33;109048;278;38446;-75
2023/09/21 11:37:49;;;;;;;3.30;2.20;;;;;;;26.41;46.55;100001.86;108988;278;40111;-73
2023/09/21 11:40:31;;;;;;;6.50;2.30;;;;;;;26.41;46.37;99992.56;108929;278;38202;-73
2023/09/21 11:43:11;;;;;;;3.80;2.20;;;;;;;26.40;46.38;99992.52;109006;278;38448;-76
2023/09/21 11:45:55;;;;;;;3.40;2.40;;;;;;;26.37;46.14;99986.55;108948;278;38506;-75
2023/09/21 11:48:36;;;;;;;4.20;2.30;;;;;;;26.34;46.22;99984.75;108933;278;38240;-75
2023/09/21 11:51:17;;;;;;;;;;;;;;;26.30;46.06;99977.91;108998;278;38173;-76
2023/09/21 11:54:00;;;;;;;3.10;2.10;;;;;;;26.22;46.09;99973.69;108825;278;174309;-76
2023/09/21 11:56:42;;;;;;;4.60;2.60;;;;;;;26.20;46.46;99966.11;108881;278;187636;-75
2023/09/21 11:59:16;;;;;;;3.10;2.40;;;;;;;26.20;46.94;99963.36;108980;278;38215;-74
2023/09/21 12:01:51;;;;;;;4.90;2.00;;;;;;;26.22;46.89;99964.61;108968;278;39401;-75
2023/09/21 12:04:26;;;;;;;2.00;1.70;;;;;;;26.21;46.14;99961.29;108934;278;38027;-77
2023/09/21 12:07:05;;;;;;;5.80;2.20;;;;;;;26.19;46.47;99959.52;108933;278;38934;-74
2023/09/21 12:09:43;;;;;;;4.40;2.30;;;;;;;26.19;46.95;99956.46;108928;278;38274;-75
2023/09/21 12:12:19;;;;;;;4.50;2.30;;;;;;;26.19;46.86;99958.11;108890;278;38810;-76
2023/09/21 12:14:57;;;;;;;3.50;2.10;;;;;;;26.18;46.96;99954.08;108904;278;40108;-75
2023/09/21 12:17:36;;;;;;;4.40;2.20;;;;;;;26.15;46.81;99953.71;108965;278;38750;-72